sensor_id;sensor_type;location;lat;lon;timestamp;P1;durP1;ratioP1;P2;durP2;ratioP2
69890;SDS011;57170;43.964;21.262;2022-12-07T00:00:50;52.30;;;35.28;;
69890;SDS011;57170;43.964;21.262;2022-12-07T00:03:16;39.53;;;24.48;;
69890;SDS011;57170;43.964;21.262;2022-12-07T00:05:42;28.23;;;20.52;;
69890;SDS011;57170;43.964;21.262;2022-12-07T00:08:08;30.75;;;20.50;;
69890;SDS011;57170;43.964;21.262;2022-12-07T00:10:34;28.10;;;20.13;;
69890;SDS011;57170;43.964;21.262;2022-12-07T00:13:00;33.30;;;22.15;;
69890;SDS011;57170;43.964;21.262;2022-12-07T00:15:26;30.45;;;20.85;;
69890;SDS011;57170;43.964;21.262;2022-12-07T00:17:52;31.52;;;20.08;;
69890;SDS011;57170;43.964;21.262;2022-12-07T00:20:18;29.70;;;21.67;;
69890;SDS011;57170;43.964;21.262;2022-12-07T00:22:44;34.40;;;22.05;;
69890;SDS011;57170;43.964;21.262;2022-12-07T00:25:10;36.28;;;25.17;;
69890;SDS011;57170;43.964;21.262;2022-12-07T00:27:37;39.90;;;29.45;;
69890;SDS011;57170;43.964;21.262;2022-12-07T00:30:03;47.22;;;34.10;;
69890;SDS011;57170;43.964;21.262;2022-12-07T00:32:29;77.13;;;54.42;;
69890;SDS011;57170;43.964;21.262;2022-12-07T00:34:55;132.50;;;97.38;;
69890;SDS011;57170;43.964;21.262;2022-12-07T00:37:21;115.45;;;80.25;;
69890;SDS011;57170;43.964;21.262;2022-12-07T00:39:47;105.10;;;76.00;;
69890;SDS011;57170;43.964;21.262;2022-12-07T00:42:13;97.72;;;68.82;;
69890;SDS011;57170;43.964;21.262;2022-12-07T00:44:39;87.78;;;63.83;;
69890;SDS011;57170;43.964;21.262;2022-12-07T00:47:05;86.57;;;64.22;;
69890;SDS011;57170;43.964;21.262;2022-12-07T00:49:32;99.30;;;70.35;;
69890;SDS011;57170;43.964;21.262;2022-12-07T00:51:58;114.53;;;82.30;;
69890;SDS011;57170;43.964;21.262;2022-12-07T00:54:24;114.15;;;84.00;;
69890;SDS011;57170;43.964;21.262;2022-12-07T00:56:50;108.25;;;79.35;;
69890;SDS011;57170;43.964;21.262;2022-12-07T00:59:16;108.15;;;79.32;;
69890;SDS011;57170;43.964;21.262;2022-12-07T01:01:42;108.70;;;80.47;;
69890;SDS011;57170;43.964;21.262;2022-12-07T01:04:08;110.72;;;80.45;;
69890;SDS011;57170;43.964;21.262;2022-12-07T01:06:34;104.80;;;75.63;;
69890;SDS011;57170;43.964;21.262;2022-12-07T01:09:00;112.57;;;83.18;;
69890;SDS011;57170;43.964;21.262;2022-12-07T01:11:27;95.85;;;69.25;;
69890;SDS011;57170;43.964;21.262;2022-12-07T01:13:54;96.78;;;73.03;;
69890;SDS011;57170;43.964;21.262;2022-12-07T01:16:22;94.15;;;69.82;;
69890;SDS011;57170;43.964;21.262;2022-12-07T01:18:48;106.97;;;78.85;;
69890;SDS011;57170;43.964;21.262;2022-12-07T01:21:16;95.72;;;70.25;;
69890;SDS011;57170;43.964;21.262;2022-12-07T01:23:42;95.72;;;69.78;;
69890;SDS011;57170;43.964;21.262;2022-12-07T01:26:12;109.05;;;78.88;;
69890;SDS011;57170;43.964;21.262;2022-12-07T01:28:39;92.30;;;71.45;;
69890;SDS011;57170;43.964;21.262;2022-12-07T01:31:06;101.30;;;70.97;;
69890;SDS011;57170;43.964;21.262;2022-12-07T01:33:33;110.25;;;81.55;;
69890;SDS011;57170;43.964;21.262;2022-12-07T01:36:07;121.57;;;84.40;;
69890;SDS011;57170;43.964;21.262;2022-12-07T01:38:33;93.35;;;72.13;;
69890;SDS011;57170;43.964;21.262;2022-12-07T01:41:00;111.70;;;80.13;;
69890;SDS011;57170;43.964;21.262;2022-12-07T01:43:27;100.70;;;73.43;;
69890;SDS011;57170;43.964;21.262;2022-12-07T01:45:54;94.28;;;74.60;;
69890;SDS011;57170;43.964;21.262;2022-12-07T01:48:53;82.78;;;63.45;;
69890;SDS011;57170;43.964;21.262;2022-12-07T01:51:12;83.07;;;65.25;;
69890;SDS011;57170;43.964;21.262;2022-12-07T01:53:40;58.67;;;46.47;;
69890;SDS011;57170;43.964;21.262;2022-12-07T01:56:07;51.17;;;38.58;;
69890;SDS011;57170;43.964;21.262;2022-12-07T01:58:34;49.55;;;36.08;;
69890;SDS011;57170;43.964;21.262;2022-12-07T02:01:01;58.58;;;44.00;;
69890;SDS011;57170;43.964;21.262;2022-12-07T02:03:29;81.05;;;55.50;;
69890;SDS011;57170;43.964;21.262;2022-12-07T02:05:57;68.35;;;50.97;;
69890;SDS011;57170;43.964;21.262;2022-12-07T02:08:24;63.03;;;49.72;;
69890;SDS011;57170;43.964;21.262;2022-12-07T02:10:50;66.70;;;46.47;;
69890;SDS011;57170;43.964;21.262;2022-12-07T02:13:18;80.70;;;53.53;;
69890;SDS011;57170;43.964;21.262;2022-12-07T02:23:38;85.50;;;64.50;;
69890;SDS011;57170;43.964;21.262;2022-12-07T02:31:36;74.05;;;55.13;;
69890;SDS011;57170;43.964;21.262;2022-12-07T02:34:08;87.72;;;63.20;;
69890;SDS011;57170;43.964;21.262;2022-12-07T02:36:43;86.22;;;59.58;;
69890;SDS011;57170;43.964;21.262;2022-12-07T02:39:14;79.85;;;57.15;;
69890;SDS011;57170;43.964;21.262;2022-12-07T02:41:50;83.13;;;54.97;;
69890;SDS011;57170;43.964;21.262;2022-12-07T02:44:19;72.97;;;55.63;;
69890;SDS011;57170;43.964;21.262;2022-12-07T02:46:51;86.72;;;59.35;;
69890;SDS011;57170;43.964;21.262;2022-12-07T02:49:19;84.38;;;57.42;;
69890;SDS011;57170;43.964;21.262;2022-12-07T02:51:47;90.22;;;64.13;;
69890;SDS011;57170;43.964;21.262;2022-12-07T02:54:14;92.38;;;67.47;;
69890;SDS011;57170;43.964;21.262;2022-12-07T02:59:14;104.47;;;73.00;;
69890;SDS011;57170;43.964;21.262;2022-12-07T03:01:56;100.95;;;73.10;;
69890;SDS011;57170;43.964;21.262;2022-12-07T03:07:13;98.47;;;72.70;;
69890;SDS011;57170;43.964;21.262;2022-12-07T03:12:15;116.10;;;78.75;;
69890;SDS011;57170;43.964;21.262;2022-12-07T03:14:47;114.57;;;82.15;;
69890;SDS011;57170;43.964;21.262;2022-12-07T03:17:16;132.00;;;89.97;;
69890;SDS011;57170;43.964;21.262;2022-12-07T03:19:43;109.93;;;77.72;;
69890;SDS011;57170;43.964;21.262;2022-12-07T03:22:12;77.45;;;56.47;;
69890;SDS011;57170;43.964;21.262;2022-12-07T03:24:39;58.00;;;40.75;;
69890;SDS011;57170;43.964;21.262;2022-12-07T03:27:08;53.95;;;35.28;;
69890;SDS011;57170;43.964;21.262;2022-12-07T03:29:36;45.72;;;31.00;;
69890;SDS011;57170;43.964;21.262;2022-12-07T03:32:09;48.45;;;26.23;;
69890;SDS011;57170;43.964;21.262;2022-12-07T03:37:37;37.03;;;24.95;;
69890;SDS011;57170;43.964;21.262;2022-12-07T03:42:40;32.92;;;22.67;;
69890;SDS011;57170;43.964;21.262;2022-12-07T03:45:07;33.15;;;24.77;;
69890;SDS011;57170;43.964;21.262;2022-12-07T03:50:06;30.20;;;23.15;;
69890;SDS011;57170;43.964;21.262;2022-12-07T03:55:06;33.92;;;21.58;;
69890;SDS011;57170;43.964;21.262;2022-12-07T03:57:34;27.52;;;19.27;;
69890;SDS011;57170;43.964;21.262;2022-12-07T04:00:00;29.73;;;22.75;;
69890;SDS011;57170;43.964;21.262;2022-12-07T04:02:27;35.85;;;25.83;;
69890;SDS011;57170;43.964;21.262;2022-12-07T04:04:54;36.08;;;23.95;;
69890;SDS011;57170;43.964;21.262;2022-12-07T04:07:20;38.08;;;27.42;;
69890;SDS011;57170;43.964;21.262;2022-12-07T04:09:46;27.95;;;23.10;;
69890;SDS011;57170;43.964;21.262;2022-12-07T04:12:12;33.28;;;25.00;;
69890;SDS011;57170;43.964;21.262;2022-12-07T04:14:38;27.98;;;22.00;;
69890;SDS011;57170;43.964;21.262;2022-12-07T04:17:05;37.65;;;26.55;;
69890;SDS011;57170;43.964;21.262;2022-12-07T04:19:32;44.75;;;27.60;;
69890;SDS011;57170;43.964;21.262;2022-12-07T04:21:59;40.20;;;26.25;;
69890;SDS011;57170;43.964;21.262;2022-12-07T04:24:26;43.42;;;27.90;;
69890;SDS011;57170;43.964;21.262;2022-12-07T04:26:52;37.00;;;25.20;;
69890;SDS011;57170;43.964;21.262;2022-12-07T04:29:18;33.92;;;27.85;;
69890;SDS011;57170;43.964;21.262;2022-12-07T04:31:45;49.92;;;34.42;;
69890;SDS011;57170;43.964;21.262;2022-12-07T04:34:11;50.33;;;37.72;;
69890;SDS011;57170;43.964;21.262;2022-12-07T04:36:37;51.80;;;35.30;;
69890;SDS011;57170;43.964;21.262;2022-12-07T04:39:04;45.85;;;35.25;;
69890;SDS011;57170;43.964;21.262;2022-12-07T04:41:30;49.70;;;34.78;;
69890;SDS011;57170;43.964;21.262;2022-12-07T04:43:57;45.72;;;30.23;;
69890;SDS011;57170;43.964;21.262;2022-12-07T04:46:24;41.72;;;29.88;;
69890;SDS011;57170;43.964;21.262;2022-12-07T04:48:51;41.90;;;30.48;;
69890;SDS011;57170;43.964;21.262;2022-12-07T04:51:21;43.08;;;28.27;;
69890;SDS011;57170;43.964;21.262;2022-12-07T04:53:47;53.00;;;35.63;;
69890;SDS011;57170;43.964;21.262;2022-12-07T04:56:14;47.58;;;32.90;;
69890;SDS011;57170;43.964;21.262;2022-12-07T04:58:41;43.75;;;32.22;;
69890;SDS011;57170;43.964;21.262;2022-12-07T05:01:07;51.90;;;35.08;;
69890;SDS011;57170;43.964;21.262;2022-12-07T05:03:34;50.60;;;37.78;;
69890;SDS011;57170;43.964;21.262;2022-12-07T05:06:00;48.63;;;31.40;;
69890;SDS011;57170;43.964;21.262;2022-12-07T05:08:26;36.42;;;28.58;;
69890;SDS011;57170;43.964;21.262;2022-12-07T05:10:52;50.30;;;35.42;;
69890;SDS011;57170;43.964;21.262;2022-12-07T05:13:18;67.28;;;41.20;;
69890;SDS011;57170;43.964;21.262;2022-12-07T05:15:44;57.92;;;45.92;;
69890;SDS011;57170;43.964;21.262;2022-12-07T05:18:12;57.95;;;39.15;;
69890;SDS011;57170;43.964;21.262;2022-12-07T05:20:41;54.92;;;37.97;;
69890;SDS011;57170;43.964;21.262;2022-12-07T05:23:07;63.88;;;39.55;;
69890;SDS011;57170;43.964;21.262;2022-12-07T05:25:34;57.17;;;41.53;;
69890;SDS011;57170;43.964;21.262;2022-12-07T05:28:01;79.15;;;56.70;;
69890;SDS011;57170;43.964;21.262;2022-12-07T05:30:27;67.60;;;51.17;;
69890;SDS011;57170;43.964;21.262;2022-12-07T05:32:53;72.88;;;51.50;;
69890;SDS011;57170;43.964;21.262;2022-12-07T05:35:19;73.75;;;51.63;;
69890;SDS011;57170;43.964;21.262;2022-12-07T05:37:45;78.25;;;54.63;;
69890;SDS011;57170;43.964;21.262;2022-12-07T05:40:12;82.13;;;57.05;;
69890;SDS011;57170;43.964;21.262;2022-12-07T05:42:38;81.25;;;54.92;;
69890;SDS011;57170;43.964;21.262;2022-12-07T05:45:05;61.22;;;46.33;;
69890;SDS011;57170;43.964;21.262;2022-12-07T05:47:31;59.80;;;44.15;;
69890;SDS011;57170;43.964;21.262;2022-12-07T05:49:57;57.15;;;40.28;;
69890;SDS011;57170;43.964;21.262;2022-12-07T05:52:24;59.35;;;41.20;;
69890;SDS011;57170;43.964;21.262;2022-12-07T05:54:51;66.18;;;46.25;;
69890;SDS011;57170;43.964;21.262;2022-12-07T05:57:17;58.00;;;42.40;;
69890;SDS011;57170;43.964;21.262;2022-12-07T05:59:43;68.82;;;47.22;;
69890;SDS011;57170;43.964;21.262;2022-12-07T06:02:10;111.13;;;76.28;;
69890;SDS011;57170;43.964;21.262;2022-12-07T06:04:37;74.57;;;52.83;;
69890;SDS011;57170;43.964;21.262;2022-12-07T06:07:04;88.88;;;61.65;;
69890;SDS011;57170;43.964;21.262;2022-12-07T06:09:30;79.70;;;54.83;;
69890;SDS011;57170;43.964;21.262;2022-12-07T06:11:57;76.90;;;54.33;;
69890;SDS011;57170;43.964;21.262;2022-12-07T06:14:42;74.90;;;49.95;;
69890;SDS011;57170;43.964;21.262;2022-12-07T06:17:08;76.78;;;53.75;;
69890;SDS011;57170;43.964;21.262;2022-12-07T06:19:35;66.50;;;48.88;;
69890;SDS011;57170;43.964;21.262;2022-12-07T06:22:01;72.90;;;51.45;;
69890;SDS011;57170;43.964;21.262;2022-12-07T06:24:27;92.95;;;64.82;;
69890;SDS011;57170;43.964;21.262;2022-12-07T06:26:53;94.65;;;65.65;;
69890;SDS011;57170;43.964;21.262;2022-12-07T06:29:20;100.38;;;66.28;;
69890;SDS011;57170;43.964;21.262;2022-12-07T06:31:47;84.28;;;57.35;;
69890;SDS011;57170;43.964;21.262;2022-12-07T06:34:14;78.18;;;52.45;;
69890;SDS011;57170;43.964;21.262;2022-12-07T06:36:40;64.85;;;45.13;;
69890;SDS011;57170;43.964;21.262;2022-12-07T06:39:07;65.10;;;42.70;;
69890;SDS011;57170;43.964;21.262;2022-12-07T06:41:34;55.05;;;40.03;;
69890;SDS011;57170;43.964;21.262;2022-12-07T06:44:01;67.75;;;42.42;;
69890;SDS011;57170;43.964;21.262;2022-12-07T06:46:28;65.63;;;45.78;;
69890;SDS011;57170;43.964;21.262;2022-12-07T06:48:54;72.78;;;46.92;;
69890;SDS011;57170;43.964;21.262;2022-12-07T06:51:20;66.07;;;45.75;;
69890;SDS011;57170;43.964;21.262;2022-12-07T06:53:46;68.68;;;51.22;;
69890;SDS011;57170;43.964;21.262;2022-12-07T06:56:12;58.40;;;46.53;;
69890;SDS011;57170;43.964;21.262;2022-12-07T06:58:38;63.83;;;48.55;;
69890;SDS011;57170;43.964;21.262;2022-12-07T07:01:08;86.50;;;58.97;;
69890;SDS011;57170;43.964;21.262;2022-12-07T07:03:35;84.72;;;60.33;;
69890;SDS011;57170;43.964;21.262;2022-12-07T07:06:01;88.13;;;62.25;;
69890;SDS011;57170;43.964;21.262;2022-12-07T07:08:27;65.55;;;48.17;;
69890;SDS011;57170;43.964;21.262;2022-12-07T07:10:53;77.07;;;55.28;;
69890;SDS011;57170;43.964;21.262;2022-12-07T07:13:19;91.75;;;63.78;;
69890;SDS011;57170;43.964;21.262;2022-12-07T07:15:45;86.68;;;59.58;;
69890;SDS011;57170;43.964;21.262;2022-12-07T07:18:11;103.15;;;67.85;;
69890;SDS011;57170;43.964;21.262;2022-12-07T07:20:38;84.53;;;59.28;;
69890;SDS011;57170;43.964;21.262;2022-12-07T07:23:04;78.50;;;50.33;;
69890;SDS011;57170;43.964;21.262;2022-12-07T07:25:30;78.93;;;53.78;;
69890;SDS011;57170;43.964;21.262;2022-12-07T07:27:56;77.63;;;52.97;;
69890;SDS011;57170;43.964;21.262;2022-12-07T07:30:22;63.88;;;42.35;;
69890;SDS011;57170;43.964;21.262;2022-12-07T07:32:49;80.75;;;53.97;;
69890;SDS011;57170;43.964;21.262;2022-12-07T07:35:15;147.18;;;89.80;;
69890;SDS011;57170;43.964;21.262;2022-12-07T07:37:41;83.10;;;59.92;;
69890;SDS011;57170;43.964;21.262;2022-12-07T07:40:08;87.80;;;58.83;;
69890;SDS011;57170;43.964;21.262;2022-12-07T07:42:34;77.03;;;52.13;;
69890;SDS011;57170;43.964;21.262;2022-12-07T07:45:00;73.93;;;49.38;;
69890;SDS011;57170;43.964;21.262;2022-12-07T07:47:26;73.70;;;51.95;;
69890;SDS011;57170;43.964;21.262;2022-12-07T07:49:54;70.95;;;49.53;;
69890;SDS011;57170;43.964;21.262;2022-12-07T07:52:20;69.65;;;50.15;;
69890;SDS011;57170;43.964;21.262;2022-12-07T07:54:46;71.55;;;50.20;;
69890;SDS011;57170;43.964;21.262;2022-12-07T07:57:12;72.38;;;50.95;;
69890;SDS011;57170;43.964;21.262;2022-12-07T07:59:38;76.43;;;53.33;;
69890;SDS011;57170;43.964;21.262;2022-12-07T08:02:05;80.22;;;57.80;;
69890;SDS011;57170;43.964;21.262;2022-12-07T08:04:31;94.85;;;64.38;;
69890;SDS011;57170;43.964;21.262;2022-12-07T08:06:57;122.35;;;86.53;;
69890;SDS011;57170;43.964;21.262;2022-12-07T08:09:23;101.80;;;68.88;;
69890;SDS011;57170;43.964;21.262;2022-12-07T08:11:49;117.45;;;81.65;;
69890;SDS011;57170;43.964;21.262;2022-12-07T08:14:15;104.30;;;73.78;;
69890;SDS011;57170;43.964;21.262;2022-12-07T08:16:41;107.30;;;76.60;;
69890;SDS011;57170;43.964;21.262;2022-12-07T08:19:07;102.70;;;74.60;;
69890;SDS011;57170;43.964;21.262;2022-12-07T08:21:33;90.03;;;68.05;;
69890;SDS011;57170;43.964;21.262;2022-12-07T08:23:59;93.28;;;67.25;;
69890;SDS011;57170;43.964;21.262;2022-12-07T08:26:26;105.53;;;79.43;;
69890;SDS011;57170;43.964;21.262;2022-12-07T08:28:52;102.80;;;71.97;;
69890;SDS011;57170;43.964;21.262;2022-12-07T08:31:18;105.72;;;80.90;;
69890;SDS011;57170;43.964;21.262;2022-12-07T08:33:45;105.20;;;78.82;;
69890;SDS011;57170;43.964;21.262;2022-12-07T08:36:12;100.82;;;74.70;;
69890;SDS011;57170;43.964;21.262;2022-12-07T08:38:38;104.72;;;75.75;;
69890;SDS011;57170;43.964;21.262;2022-12-07T08:41:05;105.13;;;76.07;;
69890;SDS011;57170;43.964;21.262;2022-12-07T08:43:31;100.80;;;72.38;;
69890;SDS011;57170;43.964;21.262;2022-12-07T08:46:06;101.03;;;72.43;;
69890;SDS011;57170;43.964;21.262;2022-12-07T08:48:33;90.65;;;68.25;;
69890;SDS011;57170;43.964;21.262;2022-12-07T08:51:00;96.80;;;72.07;;
69890;SDS011;57170;43.964;21.262;2022-12-07T08:53:27;101.00;;;76.20;;
69890;SDS011;57170;43.964;21.262;2022-12-07T08:55:53;101.45;;;76.45;;
69890;SDS011;57170;43.964;21.262;2022-12-07T08:58:20;102.97;;;75.88;;
69890;SDS011;57170;43.964;21.262;2022-12-07T09:00:46;105.13;;;75.80;;
69890;SDS011;57170;43.964;21.262;2022-12-07T09:03:12;92.55;;;69.30;;
69890;SDS011;57170;43.964;21.262;2022-12-07T09:05:38;85.72;;;66.75;;
69890;SDS011;57170;43.964;21.262;2022-12-07T09:08:04;86.10;;;65.80;;
69890;SDS011;57170;43.964;21.262;2022-12-07T09:10:31;90.95;;;66.53;;
69890;SDS011;57170;43.964;21.262;2022-12-07T09:12:58;89.70;;;66.00;;
69890;SDS011;57170;43.964;21.262;2022-12-07T09:15:27;80.95;;;63.03;;
69890;SDS011;57170;43.964;21.262;2022-12-07T09:17:53;89.63;;;69.10;;
69890;SDS011;57170;43.964;21.262;2022-12-07T09:20:20;88.13;;;70.60;;
69890;SDS011;57170;43.964;21.262;2022-12-07T09:22:46;105.45;;;85.32;;
69890;SDS011;57170;43.964;21.262;2022-12-07T09:25:12;98.28;;;82.95;;
69890;SDS011;57170;43.964;21.262;2022-12-07T09:27:39;100.68;;;77.43;;
69890;SDS011;57170;43.964;21.262;2022-12-07T09:30:05;92.28;;;75.28;;
69890;SDS011;57170;43.964;21.262;2022-12-07T09:32:32;94.57;;;72.07;;
69890;SDS011;57170;43.964;21.262;2022-12-07T09:34:58;72.97;;;61.55;;
69890;SDS011;57170;43.964;21.262;2022-12-07T09:37:24;65.40;;;54.53;;
69890;SDS011;57170;43.964;21.262;2022-12-07T09:39:50;62.55;;;50.45;;
69890;SDS011;57170;43.964;21.262;2022-12-07T09:42:26;57.08;;;46.47;;
69890;SDS011;57170;43.964;21.262;2022-12-07T09:44:53;53.05;;;44.03;;
69890;SDS011;57170;43.964;21.262;2022-12-07T09:47:19;53.38;;;42.58;;
69890;SDS011;57170;43.964;21.262;2022-12-07T09:49:45;45.47;;;37.63;;
69890;SDS011;57170;43.964;21.262;2022-12-07T09:54:45;51.97;;;36.93;;
69890;SDS011;57170;43.964;21.262;2022-12-07T09:57:12;48.85;;;40.60;;
69890;SDS011;57170;43.964;21.262;2022-12-07T09:59:38;70.10;;;57.67;;
69890;SDS011;57170;43.964;21.262;2022-12-07T10:02:23;79.85;;;62.25;;
69890;SDS011;57170;43.964;21.262;2022-12-07T10:04:50;73.85;;;59.17;;
69890;SDS011;57170;43.964;21.262;2022-12-07T10:07:16;78.65;;;62.28;;
69890;SDS011;57170;43.964;21.262;2022-12-07T10:09:42;73.40;;;60.03;;
69890;SDS011;57170;43.964;21.262;2022-12-07T10:12:09;80.82;;;61.55;;
69890;SDS011;57170;43.964;21.262;2022-12-07T10:14:40;72.72;;;57.30;;
69890;SDS011;57170;43.964;21.262;2022-12-07T10:20:18;81.65;;;62.35;;
69890;SDS011;57170;43.964;21.262;2022-12-07T10:25:26;76.07;;;55.28;;
69890;SDS011;57170;43.964;21.262;2022-12-07T10:30:25;80.65;;;61.15;;
69890;SDS011;57170;43.964;21.262;2022-12-07T10:32:51;61.90;;;50.88;;
69890;SDS011;57170;43.964;21.262;2022-12-07T10:37:43;62.53;;;48.20;;
69890;SDS011;57170;43.964;21.262;2022-12-07T10:40:43;53.63;;;39.70;;
69890;SDS011;57170;43.964;21.262;2022-12-07T10:53:54;76.38;;;50.25;;
69890;SDS011;57170;43.964;21.262;2022-12-07T11:06:38;72.88;;;51.35;;
69890;SDS011;57170;43.964;21.262;2022-12-07T11:09:29;67.32;;;48.75;;
69890;SDS011;57170;43.964;21.262;2022-12-07T11:17:01;73.82;;;52.00;;
69890;SDS011;57170;43.964;21.262;2022-12-07T11:19:43;68.35;;;50.97;;
69890;SDS011;57170;43.964;21.262;2022-12-07T11:24:50;63.70;;;45.65;;
69890;SDS011;57170;43.964;21.262;2022-12-07T11:37:42;57.88;;;47.03;;
69890;SDS011;57170;43.964;21.262;2022-12-07T11:40:15;66.78;;;50.63;;
69890;SDS011;57170;43.964;21.262;2022-12-07T11:42:43;51.72;;;41.97;;
69890;SDS011;57170;43.964;21.262;2022-12-07T11:45:26;55.78;;;40.05;;
69890;SDS011;57170;43.964;21.262;2022-12-07T11:47:54;50.93;;;37.73;;
69890;SDS011;57170;43.964;21.262;2022-12-07T11:50:25;51.13;;;39.35;;
69890;SDS011;57170;43.964;21.262;2022-12-07T11:53:02;43.70;;;33.22;;
69890;SDS011;57170;43.964;21.262;2022-12-07T11:58:09;41.15;;;30.35;;
69890;SDS011;57170;43.964;21.262;2022-12-07T12:00:38;43.10;;;32.67;;
69890;SDS011;57170;43.964;21.262;2022-12-07T12:03:11;37.13;;;26.17;;
69890;SDS011;57170;43.964;21.262;2022-12-07T12:05:40;36.75;;;27.35;;
69890;SDS011;57170;43.964;21.262;2022-12-07T12:08:12;36.22;;;27.00;;
69890;SDS011;57170;43.964;21.262;2022-12-07T12:10:55;40.03;;;29.35;;
69890;SDS011;57170;43.964;21.262;2022-12-07T12:21:14;32.83;;;26.90;;
69890;SDS011;57170;43.964;21.262;2022-12-07T12:23:45;41.67;;;31.98;;
69890;SDS011;57170;43.964;21.262;2022-12-07T12:26:21;34.50;;;23.67;;
69890;SDS011;57170;43.964;21.262;2022-12-07T12:33:50;39.45;;;26.73;;
69890;SDS011;57170;43.964;21.262;2022-12-07T12:39:19;57.50;;;40.78;;
69890;SDS011;57170;43.964;21.262;2022-12-07T12:46:50;46.40;;;30.17;;
69890;SDS011;57170;43.964;21.262;2022-12-07T12:51:53;41.40;;;29.55;;
69890;SDS011;57170;43.964;21.262;2022-12-07T13:01:47;57.28;;;38.83;;
69890;SDS011;57170;43.964;21.262;2022-12-07T13:04:16;50.72;;;36.55;;
69890;SDS011;57170;43.964;21.262;2022-12-07T13:06:43;42.25;;;29.45;;
69890;SDS011;57170;43.964;21.262;2022-12-07T13:12:05;56.53;;;38.58;;
69890;SDS011;57170;43.964;21.262;2022-12-07T13:17:12;52.70;;;36.83;;
69890;SDS011;57170;43.964;21.262;2022-12-07T13:19:55;56.70;;;41.60;;
69890;SDS011;57170;43.964;21.262;2022-12-07T13:25:18;44.72;;;33.40;;
69890;SDS011;57170;43.964;21.262;2022-12-07T13:27:43;65.50;;;45.10;;
69890;SDS011;57170;43.964;21.262;2022-12-07T13:30:17;55.30;;;39.05;;
69890;SDS011;57170;43.964;21.262;2022-12-07T13:32:50;45.30;;;32.72;;
69890;SDS011;57170;43.964;21.262;2022-12-07T13:37:55;58.35;;;39.35;;
69890;SDS011;57170;43.964;21.262;2022-12-07T13:40:22;65.13;;;45.50;;
69890;SDS011;57170;43.964;21.262;2022-12-07T13:42:56;68.30;;;49.95;;
69890;SDS011;57170;43.964;21.262;2022-12-07T13:48:32;48.90;;;33.88;;
69890;SDS011;57170;43.964;21.262;2022-12-07T13:50:57;67.07;;;46.40;;
69890;SDS011;57170;43.964;21.262;2022-12-07T13:53:24;96.40;;;66.97;;
69890;SDS011;57170;43.964;21.262;2022-12-07T13:55:55;121.63;;;83.63;;
69890;SDS011;57170;43.964;21.262;2022-12-07T13:58:21;64.00;;;44.13;;
69890;SDS011;57170;43.964;21.262;2022-12-07T14:00:48;75.20;;;52.50;;
69890;SDS011;57170;43.964;21.262;2022-12-07T14:05:41;61.85;;;45.33;;
69890;SDS011;57170;43.964;21.262;2022-12-07T14:10:38;62.45;;;46.03;;
69890;SDS011;57170;43.964;21.262;2022-12-07T14:15:50;60.72;;;47.08;;
69890;SDS011;57170;43.964;21.262;2022-12-07T14:18:29;59.80;;;44.25;;
69890;SDS011;57170;43.964;21.262;2022-12-07T14:21:06;65.40;;;45.40;;
69890;SDS011;57170;43.964;21.262;2022-12-07T14:23:32;66.80;;;45.63;;
69890;SDS011;57170;43.964;21.262;2022-12-07T14:26:06;57.45;;;42.60;;
69890;SDS011;57170;43.964;21.262;2022-12-07T14:28:34;80.88;;;54.03;;
69890;SDS011;57170;43.964;21.262;2022-12-07T14:31:01;68.47;;;46.47;;
69890;SDS011;57170;43.964;21.262;2022-12-07T14:33:27;69.85;;;50.88;;
69890;SDS011;57170;43.964;21.262;2022-12-07T14:35:54;70.15;;;51.28;;
69890;SDS011;57170;43.964;21.262;2022-12-07T14:38:22;75.13;;;55.97;;
69890;SDS011;57170;43.964;21.262;2022-12-07T14:40:49;84.70;;;56.90;;
69890;SDS011;57170;43.964;21.262;2022-12-07T14:43:16;79.82;;;52.60;;
69890;SDS011;57170;43.964;21.262;2022-12-07T14:45:43;75.35;;;52.70;;
69890;SDS011;57170;43.964;21.262;2022-12-07T14:48:13;108.07;;;83.55;;
69890;SDS011;57170;43.964;21.262;2022-12-07T14:50:50;68.63;;;45.95;;
69890;SDS011;57170;43.964;21.262;2022-12-07T14:53:18;68.80;;;46.53;;
69890;SDS011;57170;43.964;21.262;2022-12-07T14:55:48;88.97;;;61.90;;
69890;SDS011;57170;43.964;21.262;2022-12-07T14:58:14;53.78;;;39.83;;
69890;SDS011;57170;43.964;21.262;2022-12-07T15:00:41;68.38;;;49.35;;
69890;SDS011;57170;43.964;21.262;2022-12-07T15:03:07;69.78;;;54.00;;
69890;SDS011;57170;43.964;21.262;2022-12-07T15:05:33;71.07;;;48.80;;
69890;SDS011;57170;43.964;21.262;2022-12-07T15:08:00;101.60;;;83.93;;
69890;SDS011;57170;43.964;21.262;2022-12-07T15:10:27;50.45;;;35.83;;
69890;SDS011;57170;43.964;21.262;2022-12-07T15:13:01;45.30;;;34.45;;
69890;SDS011;57170;43.964;21.262;2022-12-07T15:15:46;46.15;;;35.45;;
69890;SDS011;57170;43.964;21.262;2022-12-07T15:18:13;44.72;;;34.00;;
69890;SDS011;57170;43.964;21.262;2022-12-07T15:20:40;54.08;;;39.25;;
69890;SDS011;57170;43.964;21.262;2022-12-07T15:23:06;56.00;;;41.42;;
69890;SDS011;57170;43.964;21.262;2022-12-07T15:25:32;59.22;;;41.85;;
69890;SDS011;57170;43.964;21.262;2022-12-07T15:27:59;65.82;;;46.05;;
69890;SDS011;57170;43.964;21.262;2022-12-07T15:30:25;115.07;;;79.82;;
69890;SDS011;57170;43.964;21.262;2022-12-07T15:32:51;55.67;;;40.20;;
69890;SDS011;57170;43.964;21.262;2022-12-07T15:35:18;49.30;;;37.85;;
69890;SDS011;57170;43.964;21.262;2022-12-07T15:37:45;85.20;;;58.30;;
69890;SDS011;57170;43.964;21.262;2022-12-07T15:40:11;68.30;;;44.53;;
69890;SDS011;57170;43.964;21.262;2022-12-07T15:42:38;81.28;;;57.35;;
69890;SDS011;57170;43.964;21.262;2022-12-07T15:45:04;52.08;;;35.00;;
69890;SDS011;57170;43.964;21.262;2022-12-07T15:47:32;53.75;;;40.67;;
69890;SDS011;57170;43.964;21.262;2022-12-07T15:49:59;57.40;;;44.72;;
69890;SDS011;57170;43.964;21.262;2022-12-07T15:52:26;57.20;;;42.33;;
69890;SDS011;57170;43.964;21.262;2022-12-07T15:54:52;47.45;;;37.03;;
69890;SDS011;57170;43.964;21.262;2022-12-07T15:57:18;43.55;;;30.92;;
69890;SDS011;57170;43.964;21.262;2022-12-07T15:59:44;38.28;;;31.13;;
69890;SDS011;57170;43.964;21.262;2022-12-07T16:02:10;39.83;;;33.42;;
69890;SDS011;57170;43.964;21.262;2022-12-07T16:04:36;45.15;;;35.20;;
69890;SDS011;57170;43.964;21.262;2022-12-07T16:07:02;42.75;;;32.42;;
69890;SDS011;57170;43.964;21.262;2022-12-07T16:09:28;55.33;;;40.58;;
69890;SDS011;57170;43.964;21.262;2022-12-07T16:11:55;50.78;;;39.95;;
69890;SDS011;57170;43.964;21.262;2022-12-07T16:14:21;61.33;;;49.20;;
69890;SDS011;57170;43.964;21.262;2022-12-07T16:16:47;48.30;;;36.90;;
69890;SDS011;57170;43.964;21.262;2022-12-07T16:19:13;58.70;;;50.92;;
69890;SDS011;57170;43.964;21.262;2022-12-07T16:21:39;56.08;;;45.35;;
69890;SDS011;57170;43.964;21.262;2022-12-07T16:24:06;56.55;;;45.00;;
69890;SDS011;57170;43.964;21.262;2022-12-07T16:26:32;55.53;;;44.63;;
69890;SDS011;57170;43.964;21.262;2022-12-07T16:28:58;46.88;;;37.22;;